sensor_id;sensor_type;location;lat;lon;timestamp;temperature;humidity
9790;DHT22;4934;50.852;8.098;2022-08-02T00:02:16;13.60;99.90
9790;DHT22;4934;50.852;8.098;2022-08-02T00:04:42;13.60;99.90
9790;DHT22;4934;50.852;8.098;2022-08-02T00:07:07;13.60;99.90
9790;DHT22;4934;50.852;8.098;2022-08-02T00:09:33;13.60;99.90
9790;DHT22;4934;50.852;8.098;2022-08-02T00:11:59;13.60;99.90
9790;DHT22;4934;50.852;8.098;2022-08-02T00:14:24;13.50;99.90
9790;DHT22;4934;50.852;8.098;2022-08-02T00:16:50;13.40;99.90
9790;DHT22;4934;50.852;8.098;2022-08-02T00:19:16;13.40;99.90
9790;DHT22;4934;50.852;8.098;2022-08-02T00:21:41;13.30;99.90
9790;DHT22;4934;50.852;8.098;2022-08-02T00:24:07;13.30;99.90
9790;DHT22;4934;50.852;8.098;2022-08-02T00:26:33;13.30;99.90
9790;DHT22;4934;50.852;8.098;2022-08-02T00:28:58;13.20;99.90
9790;DHT22;4934;50.852;8.098;2022-08-02T00:31:24;13.20;99.90
9790;DHT22;4934;50.852;8.098;2022-08-02T00:33:50;13.20;99.90
9790;DHT22;4934;50.852;8.098;2022-08-02T00:36:15;13.20;99.90
9790;DHT22;4934;50.852;8.098;2022-08-02T00:38:41;13.30;99.90
9790;DHT22;4934;50.852;8.098;2022-08-02T00:41:12;13.20;99.90
9790;DHT22;4934;50.852;8.098;2022-08-02T00:43:38;13.10;99.90
9790;DHT22;4934;50.852;8.098;2022-08-02T00:46:04;13.00;99.90
9790;DHT22;4934;50.852;8.098;2022-08-02T00:48:29;13.00;99.90
9790;DHT22;4934;50.852;8.098;2022-08-02T00:50:55;13.00;99.90
9790;DHT22;4934;50.852;8.098;2022-08-02T00:53:21;12.90;99.90
9790;DHT22;4934;50.852;8.098;2022-08-02T00:55:47;13.00;99.90
9790;DHT22;4934;50.852;8.098;2022-08-02T00:58:12;12.90;99.90
9790;DHT22;4934;50.852;8.098;2022-08-02T01:00:38;12.80;99.90
9790;DHT22;4934;50.852;8.098;2022-08-02T01:03:04;12.90;99.90
9790;DHT22;4934;50.852;8.098;2022-08-02T01:05:29;12.80;99.90
9790;DHT22;4934;50.852;8.098;2022-08-02T01:07:55;12.80;99.90
9790;DHT22;4934;50.852;8.098;2022-08-02T01:10:20;12.70;99.90
9790;DHT22;4934;50.852;8.098;2022-08-02T01:12:46;12.80;99.90
9790;DHT22;4934;50.852;8.098;2022-08-02T01:15:13;12.80;99.90
9790;DHT22;4934;50.852;8.098;2022-08-02T01:29:25;12.60;99.90
9790;DHT22;4934;50.852;8.098;2022-08-02T01:32:09;12.60;99.90
9790;DHT22;4934;50.852;8.098;2022-08-02T01:34:57;12.60;99.90
9790;DHT22;4934;50.852;8.098;2022-08-02T01:37:27;12.50;99.90
9790;DHT22;4934;50.852;8.098;2022-08-02T01:39:58;12.50;99.90
9790;DHT22;4934;50.852;8.098;2022-08-02T01:42:26;12.50;99.90
9790;DHT22;4934;50.852;8.098;2022-08-02T01:44:54;12.40;99.90
9790;DHT22;4934;50.852;8.098;2022-08-02T01:47:23;12.40;99.90
9790;DHT22;4934;50.852;8.098;2022-08-02T01:49:52;12.30;99.90
9790;DHT22;4934;50.852;8.098;2022-08-02T01:52:20;12.30;99.90
9790;DHT22;4934;50.852;8.098;2022-08-02T01:55:06;12.30;99.90
9790;DHT22;4934;50.852;8.098;2022-08-02T01:57:39;12.20;99.90
9790;DHT22;4934;50.852;8.098;2022-08-02T02:00:07;12.20;99.90
9790;DHT22;4934;50.852;8.098;2022-08-02T02:02:37;12.20;99.90
9790;DHT22;4934;50.852;8.098;2022-08-02T02:05:05;12.20;99.90
9790;DHT22;4934;50.852;8.098;2022-08-02T02:07:34;12.10;99.90
9790;DHT22;4934;50.852;8.098;2022-08-02T02:10:02;12.10;99.90
9790;DHT22;4934;50.852;8.098;2022-08-02T02:12:30;12.10;99.90
9790;DHT22;4934;50.852;8.098;2022-08-02T02:14:59;12.00;99.90
9790;DHT22;4934;50.852;8.098;2022-08-02T02:17:27;12.00;99.90
9790;DHT22;4934;50.852;8.098;2022-08-02T02:19:54;12.00;99.90
9790;DHT22;4934;50.852;8.098;2022-08-02T02:22:22;12.00;99.90
9790;DHT22;4934;50.852;8.098;2022-08-02T02:24:48;12.00;99.90
9790;DHT22;4934;50.852;8.098;2022-08-02T02:27:15;12.00;99.90
9790;DHT22;4934;50.852;8.098;2022-08-02T02:29:43;11.90;99.90
9790;DHT22;4934;50.852;8.098;2022-08-02T02:32:10;11.80;99.90
9790;DHT22;4934;50.852;8.098;2022-08-02T02:34:38;11.90;99.90
9790;DHT22;4934;50.852;8.098;2022-08-02T02:37:07;11.80;99.90
9790;DHT22;4934;50.852;8.098;2022-08-02T02:39:37;11.70;99.90
9790;DHT22;4934;50.852;8.098;2022-08-02T02:42:07;11.70;99.90
9790;DHT22;4934;50.852;8.098;2022-08-02T02:44:35;11.70;99.90
9790;DHT22;4934;50.852;8.098;2022-08-02T02:47:02;11.70;99.90
9790;DHT22;4934;50.852;8.098;2022-08-02T02:49:31;11.70;99.90
9790;DHT22;4934;50.852;8.098;2022-08-02T02:51:57;11.70;99.90
9790;DHT22;4934;50.852;8.098;2022-08-02T02:54:24;11.70;99.90
9790;DHT22;4934;50.852;8.098;2022-08-02T02:56:51;11.60;99.90
9790;DHT22;4934;50.852;8.098;2022-08-02T02:59:18;11.70;99.90
9790;DHT22;4934;50.852;8.098;2022-08-02T03:01:43;11.70;99.90
9790;DHT22;4934;50.852;8.098;2022-08-02T03:04:10;11.80;99.90
9790;DHT22;4934;50.852;8.098;2022-08-02T03:06:37;11.80;99.90
9790;DHT22;4934;50.852;8.098;2022-08-02T03:09:04;11.80;99.90
9790;DHT22;4934;50.852;8.098;2022-08-02T03:11:30;11.80;99.90
9790;DHT22;4934;50.852;8.098;2022-08-02T03:13:58;11.90;99.90
9790;DHT22;4934;50.852;8.098;2022-08-02T03:16:25;11.90;99.90
9790;DHT22;4934;50.852;8.098;2022-08-02T03:18:52;11.80;99.90
9790;DHT22;4934;50.852;8.098;2022-08-02T03:21:18;11.80;99.90
9790;DHT22;4934;50.852;8.098;2022-08-02T03:23:45;11.70;99.90
9790;DHT22;4934;50.852;8.098;2022-08-02T03:26:11;11.70;99.90
9790;DHT22;4934;50.852;8.098;2022-08-02T03:28:36;11.70;99.90
9790;DHT22;4934;50.852;8.098;2022-08-02T03:31:02;11.60;99.90
9790;DHT22;4934;50.852;8.098;2022-08-02T03:33:29;11.60;99.90
9790;DHT22;4934;50.852;8.098;2022-08-02T03:35:57;11.60;99.90
9790;DHT22;4934;50.852;8.098;2022-08-02T03:38:24;11.60;99.90
9790;DHT22;4934;50.852;8.098;2022-08-02T03:40:51;11.50;99.90
9790;DHT22;4934;50.852;8.098;2022-08-02T03:43:18;11.50;99.90
9790;DHT22;4934;50.852;8.098;2022-08-02T03:45:46;11.50;99.90
9790;DHT22;4934;50.852;8.098;2022-08-02T03:48:14;11.50;99.90
9790;DHT22;4934;50.852;8.098;2022-08-02T03:50:41;11.50;99.90
9790;DHT22;4934;50.852;8.098;2022-08-02T03:53:08;11.50;99.90
9790;DHT22;4934;50.852;8.098;2022-08-02T03:55:38;11.50;99.90
9790;DHT22;4934;50.852;8.098;2022-08-02T03:58:04;11.40;99.90
9790;DHT22;4934;50.852;8.098;2022-08-02T04:00:31;11.40;99.90
9790;DHT22;4934;50.852;8.098;2022-08-02T04:02:57;11.50;99.90
9790;DHT22;4934;50.852;8.098;2022-08-02T04:05:23;11.50;99.90
9790;DHT22;4934;50.852;8.098;2022-08-02T04:07:49;11.50;99.90
9790;DHT22;4934;50.852;8.098;2022-08-02T04:10:15;11.50;99.90
9790;DHT22;4934;50.852;8.098;2022-08-02T04:12:43;11.50;99.90
9790;DHT22;4934;50.852;8.098;2022-08-02T04:15:11;11.60;99.90
9790;DHT22;4934;50.852;8.098;2022-08-02T04:17:53;11.60;99.90
9790;DHT22;4934;50.852;8.098;2022-08-02T04:20:26;11.60;99.90
9790;DHT22;4934;50.852;8.098;2022-08-02T04:22:59;11.60;99.90
9790;DHT22;4934;50.852;8.098;2022-08-02T04:25:26;11.60;99.90
9790;DHT22;4934;50.852;8.098;2022-08-02T04:27:58;11.70;99.90
9790;DHT22;4934;50.852;8.098;2022-08-02T04:30:24;11.70;99.90
9790;DHT22;4934;50.852;8.098;2022-08-02T04:32:50;11.70;99.90
9790;DHT22;4934;50.852;8.098;2022-08-02T04:35:16;11.80;99.90
9790;DHT22;4934;50.852;8.098;2022-08-02T04:37:42;11.90;99.90
9790;DHT22;4934;50.852;8.098;2022-08-02T04:40:10;11.90;99.90
9790;DHT22;4934;50.852;8.098;2022-08-02T04:42:36;12.00;99.90
9790;DHT22;4934;50.852;8.098;2022-08-02T04:45:03;12.00;99.90
9790;DHT22;4934;50.852;8.098;2022-08-02T04:47:29;12.00;99.90
9790;DHT22;4934;50.852;8.098;2022-08-02T04:49:56;12.00;99.90
9790;DHT22;4934;50.852;8.098;2022-08-02T04:52:24;12.10;99.90
9790;DHT22;4934;50.852;8.098;2022-08-02T04:54:56;12.10;99.90
9790;DHT22;4934;50.852;8.098;2022-08-02T04:57:22;12.20;99.90
9790;DHT22;4934;50.852;8.098;2022-08-02T05:00:09;12.20;99.90
9790;DHT22;4934;50.852;8.098;2022-08-02T05:02:36;12.30;99.90
9790;DHT22;4934;50.852;8.098;2022-08-02T05:05:01;12.30;99.90
9790;DHT22;4934;50.852;8.098;2022-08-02T05:07:29;12.40;99.90
9790;DHT22;4934;50.852;8.098;2022-08-02T05:09:54;12.60;99.90
9790;DHT22;4934;50.852;8.098;2022-08-02T05:12:20;12.70;99.90
9790;DHT22;4934;50.852;8.098;2022-08-02T05:14:47;12.70;99.90
9790;DHT22;4934;50.852;8.098;2022-08-02T05:17:13;12.80;99.90
9790;DHT22;4934;50.852;8.098;2022-08-02T05:19:40;12.90;99.90
9790;DHT22;4934;50.852;8.098;2022-08-02T05:22:06;13.00;99.90
9790;DHT22;4934;50.852;8.098;2022-08-02T05:24:32;13.00;99.90
9790;DHT22;4934;50.852;8.098;2022-08-02T05:26:58;13.10;99.90
9790;DHT22;4934;50.852;8.098;2022-08-02T05:29:24;13.10;99.90
9790;DHT22;4934;50.852;8.098;2022-08-02T05:31:51;13.20;99.90
9790;DHT22;4934;50.852;8.098;2022-08-02T05:34:17;13.30;99.90
9790;DHT22;4934;50.852;8.098;2022-08-02T05:36:43;13.40;99.90
9790;DHT22;4934;50.852;8.098;2022-08-02T05:39:09;13.50;99.90
9790;DHT22;4934;50.852;8.098;2022-08-02T05:41:35;13.60;99.90
9790;DHT22;4934;50.852;8.098;2022-08-02T05:44:02;13.70;99.90
9790;DHT22;4934;50.852;8.098;2022-08-02T05:46:28;13.80;99.90
9790;DHT22;4934;50.852;8.098;2022-08-02T05:48:53;13.90;99.90
9790;DHT22;4934;50.852;8.098;2022-08-02T05:51:28;13.80;99.90
9790;DHT22;4934;50.852;8.098;2022-08-02T05:53:55;13.90;99.90
9790;DHT22;4934;50.852;8.098;2022-08-02T05:56:32;14.00;99.90
9790;DHT22;4934;50.852;8.098;2022-08-02T06:01:41;14.10;99.90
9790;DHT22;4934;50.852;8.098;2022-08-02T06:04:09;14.30;99.90
9790;DHT22;4934;50.852;8.098;2022-08-02T06:06:36;14.40;99.90
9790;DHT22;4934;50.852;8.098;2022-08-02T06:09:09;14.40;99.90
9790;DHT22;4934;50.852;8.098;2022-08-02T06:11:44;14.50;99.90
9790;DHT22;4934;50.852;8.098;2022-08-02T06:14:10;14.70;99.90
9790;DHT22;4934;50.852;8.098;2022-08-02T06:16:38;14.90;99.90
9790;DHT22;4934;50.852;8.098;2022-08-02T06:19:05;14.90;99.90
9790;DHT22;4934;50.852;8.098;2022-08-02T06:21:31;15.10;99.90
9790;DHT22;4934;50.852;8.098;2022-08-02T06:23:57;15.10;99.90
9790;DHT22;4934;50.852;8.098;2022-08-02T06:26:24;15.30;99.90
9790;DHT22;4934;50.852;8.098;2022-08-02T06:28:53;15.40;99.90
9790;DHT22;4934;50.852;8.098;2022-08-02T06:31:19;15.50;99.90
9790;DHT22;4934;50.852;8.098;2022-08-02T06:33:45;15.60;99.90
9790;DHT22;4934;50.852;8.098;2022-08-02T06:39:31;15.90;99.90
9790;DHT22;4934;50.852;8.098;2022-08-02T06:41:58;15.90;99.90
9790;DHT22;4934;50.852;8.098;2022-08-02T06:44:28;16.00;99.90
9790;DHT22;4934;50.852;8.098;2022-08-02T06:46:54;16.10;99.90
9790;DHT22;4934;50.852;8.098;2022-08-02T06:49:20;16.20;99.90
9790;DHT22;4934;50.852;8.098;2022-08-02T06:51:46;16.40;99.90
9790;DHT22;4934;50.852;8.098;2022-08-02T06:54:11;16.60;99.90
9790;DHT22;4934;50.852;8.098;2022-08-02T06:56:37;16.60;99.90
9790;DHT22;4934;50.852;8.098;2022-08-02T06:59:03;16.80;99.90
9790;DHT22;4934;50.852;8.098;2022-08-02T07:01:29;16.90;99.90
9790;DHT22;4934;50.852;8.098;2022-08-02T07:03:56;17.10;99.90
9790;DHT22;4934;50.852;8.098;2022-08-02T07:06:22;17.40;99.90
9790;DHT22;4934;50.852;8.098;2022-08-02T07:08:50;17.60;99.90
9790;DHT22;4934;50.852;8.098;2022-08-02T07:11:24;17.90;99.90
9790;DHT22;4934;50.852;8.098;2022-08-02T07:13:52;18.10;99.90
9790;DHT22;4934;50.852;8.098;2022-08-02T07:16:22;18.40;99.90
9790;DHT22;4934;50.852;8.098;2022-08-02T07:18:56;18.50;99.90
9790;DHT22;4934;50.852;8.098;2022-08-02T07:21:27;18.80;99.90
9790;DHT22;4934;50.852;8.098;2022-08-02T07:23:54;19.10;99.90
9790;DHT22;4934;50.852;8.098;2022-08-02T07:26:20;19.50;99.90
9790;DHT22;4934;50.852;8.098;2022-08-02T07:28:49;19.70;99.90
9790;DHT22;4934;50.852;8.098;2022-08-02T07:31:16;20.00;99.90
9790;DHT22;4934;50.852;8.098;2022-08-02T07:33:42;20.10;99.90
9790;DHT22;4934;50.852;8.098;2022-08-02T07:36:09;20.20;99.90
9790;DHT22;4934;50.852;8.098;2022-08-02T07:38:36;20.30;99.90
9790;DHT22;4934;50.852;8.098;2022-08-02T07:41:02;20.40;99.90
9790;DHT22;4934;50.852;8.098;2022-08-02T07:43:31;20.50;99.90
9790;DHT22;4934;50.852;8.098;2022-08-02T07:45:57;20.50;99.90
9790;DHT22;4934;50.852;8.098;2022-08-02T07:48:23;20.70;99.90
9790;DHT22;4934;50.852;8.098;2022-08-02T07:50:49;20.90;99.90
9790;DHT22;4934;50.852;8.098;2022-08-02T07:53:15;21.00;99.90
9790;DHT22;4934;50.852;8.098;2022-08-02T07:56:03;20.70;99.90
9790;DHT22;4934;50.852;8.098;2022-08-02T07:58:40;20.90;99.90
9790;DHT22;4934;50.852;8.098;2022-08-02T08:01:06;21.10;99.90
9790;DHT22;4934;50.852;8.098;2022-08-02T08:03:32;21.10;99.90
9790;DHT22;4934;50.852;8.098;2022-08-02T08:05:58;21.10;99.90
9790;DHT22;4934;50.852;8.098;2022-08-02T08:08:48;21.30;99.90
9790;DHT22;4934;50.852;8.098;2022-08-02T08:11:15;21.60;99.90
9790;DHT22;4934;50.852;8.098;2022-08-02T08:13:41;22.00;99.90
9790;DHT22;4934;50.852;8.098;2022-08-02T08:16:06;22.30;99.90
9790;DHT22;4934;50.852;8.098;2022-08-02T08:18:33;22.30;99.90
9790;DHT22;4934;50.852;8.098;2022-08-02T08:21:01;22.10;99.90
9790;DHT22;4934;50.852;8.098;2022-08-02T08:23:27;22.00;99.90
9790;DHT22;4934;50.852;8.098;2022-08-02T08:25:55;22.00;99.90
9790;DHT22;4934;50.852;8.098;2022-08-02T08:28:20;22.00;99.90
9790;DHT22;4934;50.852;8.098;2022-08-02T08:30:48;22.50;99.90
9790;DHT22;4934;50.852;8.098;2022-08-02T08:33:19;22.80;99.90
9790;DHT22;4934;50.852;8.098;2022-08-02T08:36:10;23.10;99.90
9790;DHT22;4934;50.852;8.098;2022-08-02T08:38:44;23.30;99.90
9790;DHT22;4934;50.852;8.098;2022-08-02T08:41:15;23.10;99.90
9790;DHT22;4934;50.852;8.098;2022-08-02T08:43:47;23.30;99.90
9790;DHT22;4934;50.852;8.098;2022-08-02T08:46:56;23.70;99.90
9790;DHT22;4934;50.852;8.098;2022-08-02T08:49:46;24.10;99.90
9790;DHT22;4934;50.852;8.098;2022-08-02T08:52:20;24.30;99.90
9790;DHT22;4934;50.852;8.098;2022-08-02T08:55:09;24.20;99.90
9790;DHT22;4934;50.852;8.098;2022-08-02T08:57:42;24.30;99.90
9790;DHT22;4934;50.852;8.098;2022-08-02T09:00:09;24.40;99.90
9790;DHT22;4934;50.852;8.098;2022-08-02T09:05:17;24.50;99.90
9790;DHT22;4934;50.852;8.098;2022-08-02T09:07:48;23.90;99.90
9790;DHT22;4934;50.852;8.098;2022-08-02T09:10:40;23.80;99.90
9790;DHT22;4934;50.852;8.098;2022-08-02T09:13:07;23.90;99.90
9790;DHT22;4934;50.852;8.098;2022-08-02T09:18:11;24.00;99.90
9790;DHT22;4934;50.852;8.098;2022-08-02T09:28:38;24.30;99.90
9790;DHT22;4934;50.852;8.098;2022-08-02T09:33:39;24.30;99.90
9790;DHT22;4934;50.852;8.098;2022-08-02T09:36:07;24.60;99.90
9790;DHT22;4934;50.852;8.098;2022-08-02T09:38:34;24.30;99.90
9790;DHT22;4934;50.852;8.098;2022-08-02T09:41:00;24.30;99.90
9790;DHT22;4934;50.852;8.098;2022-08-02T09:43:35;24.10;99.90
9790;DHT22;4934;50.852;8.098;2022-08-02T09:46:25;23.90;99.90
9790;DHT22;4934;50.852;8.098;2022-08-02T09:49:01;23.90;99.90
9790;DHT22;4934;50.852;8.098;2022-08-02T09:53:58;23.80;99.90
9790;DHT22;4934;50.852;8.098;2022-08-02T09:56:27;24.00;99.90
9790;DHT22;4934;50.852;8.098;2022-08-02T09:58:53;24.60;99.90
9790;DHT22;4934;50.852;8.098;2022-08-02T10:01:30;24.80;99.90
9790;DHT22;4934;50.852;8.098;2022-08-02T10:04:03;25.00;99.90
9790;DHT22;4934;50.852;8.098;2022-08-02T10:06:44;25.20;99.90
9790;DHT22;4934;50.852;8.098;2022-08-02T10:09:14;25.60;99.90
9790;DHT22;4934;50.852;8.098;2022-08-02T10:11:44;25.60;99.90
9790;DHT22;4934;50.852;8.098;2022-08-02T10:14:10;25.60;99.90
9790;DHT22;4934;50.852;8.098;2022-08-02T10:16:57;25.80;99.90
9790;DHT22;4934;50.852;8.098;2022-08-02T10:19:35;25.50;99.90
9790;DHT22;4934;50.852;8.098;2022-08-02T10:22:09;25.30;99.90
9790;DHT22;4934;50.852;8.098;2022-08-02T10:24:37;25.50;99.90
9790;DHT22;4934;50.852;8.098;2022-08-02T10:29:38;25.40;99.90
9790;DHT22;4934;50.852;8.098;2022-08-02T10:32:38;25.80;99.90
9790;DHT22;4934;50.852;8.098;2022-08-02T10:35:24;25.90;99.90
9790;DHT22;4934;50.852;8.098;2022-08-02T10:37:53;26.30;99.90
9790;DHT22;4934;50.852;8.098;2022-08-02T10:40:20;26.60;99.90
9790;DHT22;4934;50.852;8.098;2022-08-02T10:42:55;27.00;99.90
9790;DHT22;4934;50.852;8.098;2022-08-02T10:45:23;26.70;99.90
9790;DHT22;4934;50.852;8.098;2022-08-02T10:55:45;27.50;99.90
9790;DHT22;4934;50.852;8.098;2022-08-02T10:58:22;27.40;99.90
9790;DHT22;4934;50.852;8.098;2022-08-02T11:00:48;27.50;99.90
9790;DHT22;4934;50.852;8.098;2022-08-02T11:03:38;27.40;99.90
9790;DHT22;4934;50.852;8.098;2022-08-02T11:08:33;27.50;99.90
9790;DHT22;4934;50.852;8.098;2022-08-02T11:11:00;27.30;99.90
9790;DHT22;4934;50.852;8.098;2022-08-02T11:24:22;27.40;99.90
9790;DHT22;4934;50.852;8.098;2022-08-02T11:27:01;27.90;99.90
9790;DHT22;4934;50.852;8.098;2022-08-02T11:34:45;28.50;99.90
9790;DHT22;4934;50.852;8.098;2022-08-02T11:37:11;28.40;99.90
9790;DHT22;4934;50.852;8.098;2022-08-02T11:39:37;28.00;99.90
9790;DHT22;4934;50.852;8.098;2022-08-02T11:42:03;27.80;99.90
9790;DHT22;4934;50.852;8.098;2022-08-02T11:44:39;28.00;99.90
9790;DHT22;4934;50.852;8.098;2022-08-02T11:47:07;28.30;99.90
9790;DHT22;4934;50.852;8.098;2022-08-02T11:49:33;28.40;99.90
9790;DHT22;4934;50.852;8.098;2022-08-02T11:52:12;28.60;99.90
9790;DHT22;4934;50.852;8.098;2022-08-02T11:54:39;28.70;99.90
9790;DHT22;4934;50.852;8.098;2022-08-02T11:59:47;27.90;98.70
9790;DHT22;4934;50.852;8.098;2022-08-02T12:02:20;27.90;99.10
9790;DHT22;4934;50.852;8.098;2022-08-02T12:07:18;27.00;99.90
9790;DHT22;4934;50.852;8.098;2022-08-02T12:09:49;27.20;99.90
9790;DHT22;4934;50.852;8.098;2022-08-02T12:12:15;27.40;98.90
9790;DHT22;4934;50.852;8.098;2022-08-02T12:14:42;27.50;99.90
9790;DHT22;4934;50.852;8.098;2022-08-02T12:17:10;27.40;99.90
9790;DHT22;4934;50.852;8.098;2022-08-02T12:20:00;27.60;99.00
9790;DHT22;4934;50.852;8.098;2022-08-02T12:22:31;27.60;98.90
9790;DHT22;4934;50.852;8.098;2022-08-02T12:25:24;27.70;98.20
9790;DHT22;4934;50.852;8.098;2022-08-02T12:30:54;28.30;99.90
9790;DHT22;4934;50.852;8.098;2022-08-02T12:33:44;29.00;98.30
9790;DHT22;4934;50.852;8.098;2022-08-02T12:36:23;28.90;95.70
9790;DHT22;4934;50.852;8.098;2022-08-02T12:39:02;28.40;95.90
9790;DHT22;4934;50.852;8.098;2022-08-02T12:41:29;28.70;95.60
9790;DHT22;4934;50.852;8.098;2022-08-02T12:43:56;28.90;95.80
9790;DHT22;4934;50.852;8.098;2022-08-02T12:49:21;28.50;94.00
9790;DHT22;4934;50.852;8.098;2022-08-02T12:51:47;28.70;95.60
9790;DHT22;4934;50.852;8.098;2022-08-02T12:54:16;29.30;96.10
9790;DHT22;4934;50.852;8.098;2022-08-02T12:56:42;29.40;93.10
9790;DHT22;4934;50.852;8.098;2022-08-02T12:59:08;29.50;93.20
9790;DHT22;4934;50.852;8.098;2022-08-02T13:01:35;29.70;94.80
9790;DHT22;4934;50.852;8.098;2022-08-02T13:04:02;29.80;92.00
9790;DHT22;4934;50.852;8.098;2022-08-02T13:06:28;29.10;92.20
9790;DHT22;4934;50.852;8.098;2022-08-02T13:08:54;29.00;92.20
9790;DHT22;4934;50.852;8.098;2022-08-02T13:11:21;29.30;93.70
9790;DHT22;4934;50.852;8.098;2022-08-02T13:13:47;29.50;93.10
9790;DHT22;4934;50.852;8.098;2022-08-02T13:16:13;29.30;91.70
9790;DHT22;4934;50.852;8.098;2022-08-02T13:18:40;29.50;91.90
9790;DHT22;4934;50.852;8.098;2022-08-02T13:23:44;30.40;94.00
9790;DHT22;4934;50.852;8.098;2022-08-02T13:26:10;30.60;91.50
9790;DHT22;4934;50.852;8.098;2022-08-02T13:28:35;30.40;90.40
9790;DHT22;4934;50.852;8.098;2022-08-02T13:31:03;30.50;91.60
9790;DHT22;4934;50.852;8.098;2022-08-02T13:33:37;30.40;90.10
9790;DHT22;4934;50.852;8.098;2022-08-02T13:36:04;29.90;90.40
9790;DHT22;4934;50.852;8.098;2022-08-02T13:38:30;29.90;89.80
9790;DHT22;4934;50.852;8.098;2022-08-02T13:40:57;29.80;90.30
9790;DHT22;4934;50.852;8.098;2022-08-02T13:43:41;30.00;90.60
9790;DHT22;4934;50.852;8.098;2022-08-02T13:46:08;29.30;89.80
9790;DHT22;4934;50.852;8.098;2022-08-02T13:48:43;28.60;90.90
9790;DHT22;4934;50.852;8.098;2022-08-02T13:51:08;28.20;91.70
9790;DHT22;4934;50.852;8.098;2022-08-02T13:53:39;28.80;92.30
9790;DHT22;4934;50.852;8.098;2022-08-02T13:56:05;28.80;92.20
9790;DHT22;4934;50.852;8.098;2022-08-02T13:58:30;29.30;92.40
9790;DHT22;4934;50.852;8.098;2022-08-02T14:00:57;29.60;92.10
9790;DHT22;4934;50.852;8.098;2022-08-02T14:03:25;29.80;91.70
9790;DHT22;4934;50.852;8.098;2022-08-02T14:05:51;29.80;91.20
9790;DHT22;4934;50.852;8.098;2022-08-02T14:08:17;29.90;90.00
9790;DHT22;4934;50.852;8.098;2022-08-02T14:10:45;29.50;91.00
9790;DHT22;4934;50.852;8.098;2022-08-02T14:13:19;29.50;91.30
9790;DHT22;4934;50.852;8.098;2022-08-02T14:16:36;29.70;93.20
9790;DHT22;4934;50.852;8.098;2022-08-02T14:19:02;30.10;93.40
9790;DHT22;4934;50.852;8.098;2022-08-02T14:21:27;30.30;92.00
9790;DHT22;4934;50.852;8.098;2022-08-02T14:23:54;29.90;90.10
9790;DHT22;4934;50.852;8.098;2022-08-02T14:26:20;30.10;90.40
9790;DHT22;4934;50.852;8.098;2022-08-02T14:28:49;30.00;90.10
9790;DHT22;4934;50.852;8.098;2022-08-02T14:31:14;30.10;90.50
9790;DHT22;4934;50.852;8.098;2022-08-02T14:33:40;29.80;89.80
9790;DHT22;4934;50.852;8.098;2022-08-02T14:38:53;30.00;90.50
9790;DHT22;4934;50.852;8.098;2022-08-02T14:43:53;29.90;90.00
9790;DHT22;4934;50.852;8.098;2022-08-02T14:46:37;30.20;92.00
9790;DHT22;4934;50.852;8.098;2022-08-02T14:49:09;30.40;91.20
9790;DHT22;4934;50.852;8.098;2022-08-02T14:51:36;30.50;90.80
9790;DHT22;4934;50.852;8.098;2022-08-02T14:56:39;30.60;90.30
9790;DHT22;4934;50.852;8.098;2022-08-02T14:59:05;30.70;91.00
9790;DHT22;4934;50.852;8.098;2022-08-02T15:01:31;30.80;89.40
9790;DHT22;4934;50.852;8.098;2022-08-02T15:03:57;30.70;88.50
9790;DHT22;4934;50.852;8.098;2022-08-02T15:06:23;30.90;91.10
9790;DHT22;4934;50.852;8.098;2022-08-02T15:08:54;30.90;88.30
9790;DHT22;4934;50.852;8.098;2022-08-02T15:11:20;30.80;86.60
9790;DHT22;4934;50.852;8.098;2022-08-02T15:13:45;30.40;85.70
9790;DHT22;4934;50.852;8.098;2022-08-02T15:16:11;30.40;87.10
9790;DHT22;4934;50.852;8.098;2022-08-02T15:18:36;29.80;88.50
9790;DHT22;4934;50.852;8.098;2022-08-02T15:21:02;29.90;87.70
9790;DHT22;4934;50.852;8.098;2022-08-02T15:23:28;29.60;86.60
9790;DHT22;4934;50.852;8.098;2022-08-02T15:25:54;29.60;88.40
9790;DHT22;4934;50.852;8.098;2022-08-02T15:28:20;29.60;88.40
9790;DHT22;4934;50.852;8.098;2022-08-02T15:30:45;29.50;87.20
9790;DHT22;4934;50.852;8.098;2022-08-02T15:33:11;29.10;88.80
9790;DHT22;4934;50.852;8.098;2022-08-02T15:35:40;29.00;90.50
9790;DHT22;4934;50.852;8.098;2022-08-02T15:38:05;28.70;90.10
9790;DHT22;4934;50.852;8.098;2022-08-02T15:40:31;28.70;91.10
9790;DHT22;4934;50.852;8.098;2022-08-02T15:42:56;28.50;90.20
9790;DHT22;4934;50.852;8.098;2022-08-02T15:45:22;28.50;90.10
9790;DHT22;4934;50.852;8.098;2022-08-02T15:47:49;28.90;89.80
9790;DHT22;4934;50.852;8.098;2022-08-02T15:50:15;28.70;90.20
9790;DHT22;4934;50.852;8.098;2022-08-02T15:52:41;29.10;90.10
9790;DHT22;4934;50.852;8.098;2022-08-02T15:55:07;29.30;89.40
9790;DHT22;4934;50.852;8.098;2022-08-02T15:57:32;29.40;89.20
9790;DHT22;4934;50.852;8.098;2022-08-02T15:59:58;29.30;88.30
9790;DHT22;4934;50.852;8.098;2022-08-02T16:02:25;29.50;87.70
9790;DHT22;4934;50.852;8.098;2022-08-02T16:04:50;29.60;90.30
9790;DHT22;4934;50.852;8.098;2022-08-02T16:07:16;29.70;88.40
9790;DHT22;4934;50.852;8.098;2022-08-02T16:09:42;29.50;86.70
9790;DHT22;4934;50.852;8.098;2022-08-02T16:12:08;29.30;88.10
9790;DHT22;4934;50.852;8.098;2022-08-02T16:14:34;29.10;85.70
9790;DHT22;4934;50.852;8.098;2022-08-02T16:16:59;29.00;87.70
9790;DHT22;4934;50.852;8.098;2022-08-02T16:19:25;28.90;88.90
9790;DHT22;4934;50.852;8.098;2022-08-02T16:21:51;29.20;88.20
9790;DHT22;4934;50.852;8.098;2022-08-02T16:24:17;29.40;87.20
9790;DHT22;4934;50.852;8.098;2022-08-02T16:26:43;29.40;87.00
9790;DHT22;4934;50.852;8.098;2022-08-02T16:29:08;29.30;85.70
9790;DHT22;4934;50.852;8.098;2022-08-02T16:31:34;28.40;86.00
9790;DHT22;4934;50.852;8.098;2022-08-02T16:34:00;28.50;87.80
9790;DHT22;4934;50.852;8.098;2022-08-02T16:36:26;28.90;88.80
9790;DHT22;4934;50.852;8.098;2022-08-02T16:38:53;29.00;88.20
9790;DHT22;4934;50.852;8.098;2022-08-02T16:41:21;29.40;89.60
9790;DHT22;4934;50.852;8.098;2022-08-02T16:43:47;29.30;86.20
9790;DHT22;4934;50.852;8.098;2022-08-02T16:46:12;29.20;87.40
9790;DHT22;4934;50.852;8.098;2022-08-02T16:48:39;29.10;85.90
9790;DHT22;4934;50.852;8.098;2022-08-02T16:51:04;29.10;86.40
9790;DHT22;4934;50.852;8.098;2022-08-02T16:53:30;28.80;86.70
9790;DHT22;4934;50.852;8.098;2022-08-02T16:55:56;28.90;88.40
9790;DHT22;4934;50.852;8.098;2022-08-02T16:58:21;29.10;87.00
9790;DHT22;4934;50.852;8.098;2022-08-02T17:00:47;29.20;86.20
9790;DHT22;4934;50.852;8.098;2022-08-02T17:03:12;28.90;86.60
9790;DHT22;4934;50.852;8.098;2022-08-02T17:05:38;29.10;86.40
9790;DHT22;4934;50.852;8.098;2022-08-02T17:08:05;29.10;87.50
9790;DHT22;4934;50.852;8.098;2022-08-02T17:10:32;29.30;85.70
9790;DHT22;4934;50.852;8.098;2022-08-02T17:13:02;29.20;86.20
9790;DHT22;4934;50.852;8.098;2022-08-02T17:15:28;29.30;86.70
9790;DHT22;4934;50.852;8.098;2022-08-02T17:17:54;29.30;87.60
9790;DHT22;4934;50.852;8.098;2022-08-02T17:20:20;29.40;86.10
9790;DHT22;4934;50.852;8.098;2022-08-02T17:22:46;29.50;85.70
9790;DHT22;4934;50.852;8.098;2022-08-02T17:25:11;29.50;85.60
9790;DHT22;4934;50.852;8.098;2022-08-02T17:27:43;29.50;85.40
9790;DHT22;4934;50.852;8.098;2022-08-02T17:30:10;29.50;85.30
9790;DHT22;4934;50.852;8.098;2022-08-02T17:32:36;29.60;85.80
9790;DHT22;4934;50.852;8.098;2022-08-02T17:35:02;29.70;85.80
9790;DHT22;4934;50.852;8.098;2022-08-02T17:37:28;29.70;82.80
9790;DHT22;4934;50.852;8.098;2022-08-02T17:39:53;29.70;83.10